Time;durP1;ratioP1;P1;durP2;ratioP2;P2;SDS_P1;SDS_P2;PMS_P1;PMS_P2;Temp;Humidity;BMP_temperature;BMP_pressure;BME280_temperature;BME280_humidity;BME280_pressure;Samples;Min_cycle;Max_cycle;Signal;HPM_P1;HPM_P2
2022/01/22 00:00:42;;;;;;;44.80;31.83;;;;;;;;;;5066708;28;20047;-81
2022/01/22 00:03:08;;;;;;;46.72;32.42;;;;;;;;;;5046561;28;20045;-80
2022/01/22 00:05:34;;;;;;;47.00;32.35;;;;;;;;;;5046495;28;20079;-80
2022/01/22 00:08:00;;;;;;;46.20;33.22;;;;;;;;;;5047090;28;20040;-80
2022/01/22 00:10:26;;;;;;;46.65;33.40;;;;;;;;;;5064436;28;20068;-79
2022/01/22 00:15:27;;;;;;;47.60;33.85;;;;;;;;;;5068096;28;20040;-80
2022/01/22 00:17:53;;;;;;;49.22;34.95;;;;;;;;;;5046859;28;20033;-80
2022/01/22 00:20:20;;;;;;;51.78;36.63;;;;;;;;;;5064037;28;20037;-80
2022/01/22 00:22:46;;;;;;;51.80;38.08;;;;;;;;;;5045759;28;20068;-79
2022/01/22 00:25:13;;;;;;;51.10;38.15;;;;;;;;;;5046404;28;20372;-80
2022/01/22 00:27:39;;;;;;;51.20;36.95;;;;;;;;;;5047028;28;20041;-80
2022/01/22 00:30:06;;;;;;;51.13;37.60;;;;;;;;;;5061733;28;20037;-78
2022/01/22 00:32:32;;;;;;;58.83;38.10;;;;;;;;;;5042678;28;20041;-77
2022/01/22 00:34:58;;;;;;;55.15;38.90;;;;;;;;;;5063088;28;20047;-80
2022/01/22 00:37:24;;;;;;;58.25;40.55;;;;;;;;;;5064745;28;20045;-80
2022/01/22 00:39:50;;;;;;;58.30;40.00;;;;;;;;;;5064813;28;20052;-80
2022/01/22 00:42:17;;;;;;;57.95;39.42;;;;;;;;;;5046810;28;20036;-79
2022/01/22 00:44:43;;;;;;;57.67;39.88;;;;;;;;;;5063967;28;20048;-80
2022/01/22 00:47:09;;;;;;;61.78;40.45;;;;;;;;;;5060237;28;20662;-76
2022/01/22 00:49:35;;;;;;;64.95;40.55;;;;;;;;;;5041595;28;20041;-78
2022/01/22 00:52:01;;;;;;;60.78;39.75;;;;;;;;;;5058184;28;20428;-77
2022/01/22 00:54:27;;;;;;;60.65;39.05;;;;;;;;;;5058317;28;20095;-76
2022/01/22 00:56:53;;;;;;;57.05;40.00;;;;;;;;;;5058026;28;20041;-77
2022/01/22 00:59:19;;;;;;;54.60;38.08;;;;;;;;;;5041734;28;20044;-77
2022/01/22 01:01:45;;;;;;;56.63;40.15;;;;;;;;;;5058221;28;20044;-77
2022/01/22 01:04:11;;;;;;;58.45;40.53;;;;;;;;;;5059399;28;20041;-78
2022/01/22 01:06:38;;;;;;;57.92;39.30;;;;;;;;;;5059589;28;20444;-77
2022/01/22 01:09:05;;;;;;;56.15;39.08;;;;;;;;;;5058518;28;20032;-81
2022/01/22 01:11:34;;;;;;;51.45;36.28;;;;;;;;;;5061704;28;20040;-81
2022/01/22 01:14:02;;;;;;;53.05;36.10;;;;;;;;;;5064948;28;20074;-80
2022/01/22 01:35:25;;;;;;;43.17;30.30;;;;;;;;;;5073194;28;20037;-80
2022/01/22 01:37:53;;;;;;;39.95;29.55;;;;;;;;;;5073286;28;20060;-79
2022/01/22 01:40:21;;;;;;;41.60;28.60;;;;;;;;;;5072267;28;20061;-79
2022/01/22 01:45:13;;;;;;;39.83;29.05;;;;;;;;;;5072011;28;20067;-79
2022/01/22 01:47:42;;;;;;;43.83;30.45;;;;;;;;;;5071334;28;20044;-80
2022/01/22 01:50:08;;;;;;;42.13;30.33;;;;;;;;;;5072144;28;20037;-80
2022/01/22 01:53:40;;;;;;;44.58;30.45;;;;;;;;;;5067633;28;20127;-80
2022/01/22 01:55:33;;;;;;;46.80;32.90;;;;;;;;;;5050793;28;20425;-77
2022/01/22 01:57:59;;;;;;;45.65;33.03;;;;;;;;;;5062336;28;20037;-80
2022/01/22 02:00:25;;;;;;;45.25;33.03;;;;;;;;;;5063905;28;20111;-79
2022/01/22 02:02:52;;;;;;;46.80;32.95;;;;;;;;;;5056623;28;20033;-79
2022/01/22 02:05:20;;;;;;;50.83;34.97;;;;;;;;;;5066327;28;20048;-79
2022/01/22 02:07:46;;;;;;;49.97;34.05;;;;;;;;;;5063273;28;20518;-79
2022/01/22 02:10:16;;;;;;;46.90;32.22;;;;;;;;;;5056062;28;20033;-79
2022/01/22 02:25:58;;;;;;;41.35;30.48;;;;;;;;;;5066755;28;20162;-79
2022/01/22 02:28:24;;;;;;;43.38;31.83;;;;;;;;;;5044375;28;20052;-79
2022/01/22 02:30:56;;;;;;;51.28;33.13;;;;;;;;;;5063343;28;20040;-78
2022/01/22 02:33:34;;;;;;;50.80;33.92;;;;;;;;;;5047447;28;20037;-79
2022/01/22 02:36:18;;;;;;;47.17;33.33;;;;;;;;;;5045194;28;20033;-79
2022/01/22 02:41:19;;;;;;;49.72;33.65;;;;;;;;;;5058954;28;20445;-79
2022/01/22 02:43:46;;;;;;;46.90;31.60;;;;;;;;;;5058564;28;20067;-79
2022/01/22 02:46:15;;;;;;;49.33;34.63;;;;;;;;;;5057255;28;20428;-79
2022/01/22 02:48:41;;;;;;;55.20;35.33;;;;;;;;;;5042151;28;20033;-78
2022/01/22 02:51:07;;;;;;;50.45;35.00;;;;;;;;;;5059729;28;20041;-78
2022/01/22 02:53:33;;;;;;;54.88;37.33;;;;;;;;;;5059578;28;20440;-78
2022/01/22 02:55:59;;;;;;;58.08;38.13;;;;;;;;;;5041988;28;20045;-78
2022/01/22 02:58:25;;;;;;;54.63;37.50;;;;;;;;;;5059858;28;20067;-78
2022/01/22 03:00:51;;;;;;;60.97;38.90;;;;;;;;;;5058069;28;20041;-78
2022/01/22 03:03:17;;;;;;;57.22;38.88;;;;;;;;;;5058425;28;20051;-79
2022/01/22 03:05:43;;;;;;;62.28;40.03;;;;;;;;;;5057977;28;20037;-78
2022/01/22 03:08:10;;;;;;;56.35;37.75;;;;;;;;;;5057525;28;20071;-78
2022/01/22 03:10:38;;;;;;;62.72;39.42;;;;;;;;;;5040252;28;20188;-77
2022/01/22 03:18:13;;;;;;;59.08;36.95;;;;;;;;;;5060527;28;20111;-78
2022/01/22 03:28:57;;;;;;;49.80;31.52;;;;;;;;;;5060359;28;20029;-80
2022/01/22 03:31:24;;;;;;;45.15;31.23;;;;;;;;;;5044832;28;20114;-81
2022/01/22 03:33:50;;;;;;;47.60;33.22;;;;;;;;;;5062580;28;20056;-81
2022/01/22 03:36:16;;;;;;;49.95;33.58;;;;;;;;;;5064069;28;20044;-79
2022/01/22 03:38:42;;;;;;;51.22;35.97;;;;;;;;;;5063891;28;20045;-79
2022/01/22 03:41:08;;;;;;;51.22;35.28;;;;;;;;;;5063955;28;20064;-79
2022/01/22 03:43:34;;;;;;;50.25;34.38;;;;;;;;;;5062391;28;20044;-79
2022/01/22 03:46:00;;;;;;;53.00;35.70;;;;;;;;;;5061193;28;20068;-79
2022/01/22 03:48:26;;;;;;;53.20;36.78;;;;;;;;;;5043297;28;20044;-78
2022/01/22 03:50:53;;;;;;;54.65;37.15;;;;;;;;;;5059672;28;20116;-78
2022/01/22 03:53:19;;;;;;;53.22;35.00;;;;;;;;;;5042996;28;20041;-78
2022/01/22 03:56:02;;;;;;;56.72;36.72;;;;;;;;;;5062155;28;20051;-79
2022/01/22 03:58:28;;;;;;;;;;;;;;;;;;5048241;28;20041;-78
2022/01/22 04:01:13;;;;;;;53.10;35.22;;;;;;;;;;5062192;28;19920;-80
2022/01/22 04:03:43;;;;;;;51.95;35.47;;;;;;;;;;5062569;28;20069;-81
2022/01/22 04:08:36;;;;;;;60.33;36.35;;;;;;;;;;5059008;28;20041;-77
2022/01/22 04:11:02;;;;;;;52.35;36.10;;;;;;;;;;5042470;28;20067;-77
2022/01/22 04:13:33;;;;;;;53.33;36.85;;;;;;;;;;5041442;28;20041;-77
2022/01/22 04:15:59;;;;;;;61.03;39.20;;;;;;;;;;5058378;28;20422;-77
2022/01/22 04:26:53;;;;;;;59.40;40.75;;;;;;;;;;5062666;28;20083;-81
2022/01/22 04:29:19;;;;;;;57.47;39.38;;;;;;;;;;5046952;28;20182;-78
2022/01/22 04:31:45;;;;;;;57.08;38.28;;;;;;;;;;5063099;28;20455;-79
2022/01/22 04:34:11;;;;;;;58.22;38.92;;;;;;;;;;5061354;28;20116;-81
2022/01/22 04:36:37;;;;;;;57.58;38.38;;;;;;;;;;5061030;28;20102;-80
2022/01/22 04:39:04;;;;;;;55.30;37.88;;;;;;;;;;5061821;28;20091;-80
2022/01/22 04:41:30;;;;;;;59.75;38.45;;;;;;;;;;5061914;28;20045;-80
2022/01/22 04:44:00;;;;;;;53.97;37.38;;;;;;;;;;5044982;28;20045;-80
2022/01/22 04:46:49;;;;;;;55.13;37.05;;;;;;;;;;5059673;28;20061;-81
2022/01/22 04:52:27;;;;;;;59.13;35.95;;;;;;;;;;5060134;28;20040;-80
2022/01/22 04:55:01;;;;;;;56.65;38.15;;;;;;;;;;5060809;28;20421;-79
2022/01/22 04:57:28;;;;;;;55.67;36.75;;;;;;;;;;5060782;28;20040;-80
2022/01/22 04:59:54;;;;;;;56.63;36.47;;;;;;;;;;5043991;28;20067;-78
2022/01/22 05:02:20;;;;;;;60.42;37.45;;;;;;;;;;5059475;28;20075;-76
2022/01/22 05:04:46;;;;;;;54.58;36.67;;;;;;;;;;5058440;28;20356;-77
2022/01/22 05:07:12;;;;;;;63.30;39.72;;;;;;;;;;5059449;28;20061;-79
2022/01/22 05:09:38;;;;;;;65.22;40.65;;;;;;;;;;5043709;28;20037;-79
2022/01/22 05:12:05;;;;;;;62.65;40.53;;;;;;;;;;5065185;28;20037;-78
2022/01/22 05:14:31;;;;;;;58.58;39.35;;;;;;;;;;5042370;28;20467;-79
2022/01/22 05:16:59;;;;;;;60.33;40.42;;;;;;;;;;5042185;28;20052;-79
2022/01/22 05:19:46;;;;;;;56.35;39.30;;;;;;;;;;5063707;28;20043;-80
2022/01/22 05:23:17;;;;;;;62.05;39.00;;;;;;;;;;5058550;28;20041;-81
2022/01/22 05:25:12;;;;;;;61.75;39.95;;;;;;;;;;5040273;28;20142;-79
2022/01/22 05:28:07;;;;;;;63.97;41.10;;;;;;;;;;5042972;28;20033;-80
2022/01/22 05:38:28;;;;;;;68.93;41.88;;;;;;;;;;5062161;28;20456;-80
2022/01/22 05:40:54;;;;;;;64.28;41.42;;;;;;;;;;5045317;28;20044;-79
2022/01/22 05:43:20;;;;;;;61.30;40.38;;;;;;;;;;5061059;28;20052;-80
2022/01/22 05:45:46;;;;;;;63.17;39.83;;;;;;;;;;5044506;28;20062;-79
2022/01/22 05:48:12;;;;;;;61.95;38.90;;;;;;;;;;5044709;28;20033;-80
2022/01/22 05:53:15;;;;;;;66.05;41.63;;;;;;;;;;5062183;28;20041;-80
2022/01/22 06:01:07;;;;;;;69.10;41.58;;;;;;;;;;5060925;28;20051;-79
2022/01/22 06:03:33;;;;;;;64.88;40.33;;;;;;;;;;5043934;28;20045;-80
2022/01/22 06:06:00;;;;;;;68.63;41.72;;;;;;;;;;5061765;28;20159;-80
2022/01/22 06:08:30;;;;;;;62.80;39.58;;;;;;;;;;5061051;28;20041;-80
2022/01/22 06:10:59;;;;;;;65.85;41.17;;;;;;;;;;5045354;28;20553;-80
2022/01/22 06:13:43;;;;;;;65.82;41.80;;;;;;;;;;5043606;28;20045;-78
2022/01/22 06:16:09;;;;;;;72.80;43.67;;;;;;;;;;5043890;28;20044;-79
2022/01/22 06:18:35;;;;;;;78.68;45.15;;;;;;;;;;5060219;28;20123;-78
2022/01/22 06:21:01;;;;;;;73.30;45.08;;;;;;;;;;5063104;28;20068;-78
2022/01/22 06:23:27;;;;;;;73.80;44.53;;;;;;;;;;5041629;28;20048;-79
2022/01/22 06:25:53;;;;;;;77.43;44.15;;;;;;;;;;5062110;28;20093;-79
2022/01/22 06:28:19;;;;;;;79.88;46.83;;;;;;;;;;5059239;28;20326;-80
2022/01/22 06:30:46;;;;;;;81.03;46.78;;;;;;;;;;5043585;28;20047;-78
2022/01/22 06:33:12;;;;;;;85.65;47.70;;;;;;;;;;5060271;28;20437;-79
2022/01/22 06:35:38;;;;;;;89.28;47.92;;;;;;;;;;5059771;28;20045;-78
2022/01/22 06:38:07;;;;;;;85.75;48.42;;;;;;;;;;5043105;28;20048;-78
2022/01/22 06:43:19;;;;;;;87.60;48.75;;;;;;;;;;5017257;28;20123;-78
2022/01/22 06:45:45;;;;;;;99.05;53.70;;;;;;;;;;5059930;28;20037;-80
2022/01/22 06:48:11;;;;;;;88.13;50.25;;;;;;;;;;5059198;28;20177;-79
2022/01/22 06:50:37;;;;;;;93.95;52.80;;;;;;;;;;5058007;28;20037;-76
2022/01/22 06:53:03;;;;;;;92.05;50.85;;;;;;;;;;5056303;28;20036;-81
2022/01/22 06:58:21;;;;;;;88.13;48.58;;;;;;;;;;5054102;28;20401;-79
2022/01/22 07:00:47;;;;;;;86.75;48.25;;;;;;;;;;5042094;28;20068;-78
2022/01/22 07:03:13;;;;;;;87.80;49.15;;;;;;;;;;5041751;28;20041;-77
2022/01/22 07:05:39;;;;;;;81.20;46.30;;;;;;;;;;5057738;28;20364;-79
2022/01/22 07:08:05;;;;;;;78.88;45.70;;;;;;;;;;5041062;28;20041;-79
2022/01/22 07:10:31;;;;;;;77.45;44.22;;;;;;;;;;5057928;28;20365;-79
2022/01/22 07:12:57;;;;;;;76.60;44.17;;;;;;;;;;5058180;28;20037;-79
2022/01/22 07:15:23;;;;;;;74.25;44.85;;;;;;;;;;5041394;28;20041;-80
2022/01/22 07:17:49;;;;;;;78.50;44.00;;;;;;;;;;5058291;28;20037;-77
2022/01/22 07:20:24;;;;;;;81.82;44.00;;;;;;;;;;5058391;28;20464;-78
2022/01/22 07:22:52;;;;;;;79.35;44.63;;;;;;;;;;5041742;28;20057;-77
2022/01/22 07:25:18;;;;;;;70.57;38.50;;;;;;;;;;5056492;28;20041;-78
2022/01/22 07:27:45;;;;;;;69.72;41.88;;;;;;;;;;5040210;28;20110;-76
2022/01/22 07:30:11;;;;;;;68.47;39.10;;;;;;;;;;5042303;28;20045;-79
2022/01/22 07:32:41;;;;;;;67.93;39.63;;;;;;;;;;5041339;28;20433;-78
2022/01/22 07:35:07;;;;;;;70.18;39.03;;;;;;;;;;5041884;28;20037;-79
2022/01/22 07:37:35;;;;;;;64.70;37.03;;;;;;;;;;5055927;28;20037;-77
2022/01/22 07:40:02;;;;;;;69.63;37.80;;;;;;;;;;5058239;28;20033;-78
2022/01/22 07:42:28;;;;;;;64.07;36.75;;;;;;;;;;5040135;28;20048;-76
2022/01/22 07:44:54;;;;;;;59.92;35.97;;;;;;;;;;5038796;28;20045;-79
2022/01/22 07:47:20;;;;;;;64.25;38.45;;;;;;;;;;5057452;28;20361;-77
2022/01/22 07:49:46;;;;;;;67.13;36.40;;;;;;;;;;5038380;28;20049;-77
2022/01/22 07:52:12;;;;;;;63.67;37.10;;;;;;;;;;5057217;28;20048;-77
2022/01/22 07:54:38;;;;;;;64.95;37.25;;;;;;;;;;5056439;28;20036;-76
2022/01/22 07:57:04;;;;;;;64.15;37.53;;;;;;;;;;5056646;28;20041;-78
2022/01/22 07:59:31;;;;;;;62.88;37.42;;;;;;;;;;5039160;28;20449;-78
2022/01/22 08:01:57;;;;;;;59.10;35.15;;;;;;;;;;5056409;28;20120;-75
2022/01/22 08:04:25;;;;;;;65.85;36.15;;;;;;;;;;5056864;28;20083;-77
2022/01/22 08:06:52;;;;;;;60.80;35.00;;;;;;;;;;5039928;28;20075;-78
2022/01/22 08:09:18;;;;;;;58.70;33.67;;;;;;;;;;5039888;28;20513;-75
2022/01/22 08:11:44;;;;;;;63.17;35.03;;;;;;;;;;5058724;28;20045;-77
2022/01/22 08:14:10;;;;;;;61.95;35.35;;;;;;;;;;5046489;28;20045;-77
2022/01/22 08:16:36;;;;;;;61.85;35.33;;;;;;;;;;5060299;28;20047;-77
2022/01/22 08:19:03;;;;;;;65.20;36.03;;;;;;;;;;5060822;28;20072;-76
2022/01/22 08:21:29;;;;;;;65.43;36.08;;;;;;;;;;5048233;28;20037;-77
2022/01/22 08:23:55;;;;;;;67.65;39.08;;;;;;;;;;5060422;28;20073;-75
2022/01/22 08:26:26;;;;;;;72.60;39.28;;;;;;;;;;5060772;28;20037;-76
2022/01/22 08:28:57;;;;;;;66.97;38.05;;;;;;;;;;5044944;28;20045;-76
2022/01/22 08:31:37;;;;;;;68.50;38.80;;;;;;;;;;5064606;28;20453;-78
2022/01/22 08:36:47;;;;;;;73.90;39.47;;;;;;;;;;5060012;28;20036;-77
2022/01/22 08:39:17;;;;;;;70.10;37.13;;;;;;;;;;5059453;28;20063;-77
2022/01/22 08:41:43;;;;;;;74.55;37.97;;;;;;;;;;5059613;28;20067;-78
2022/01/22 08:44:10;;;;;;;70.82;37.92;;;;;;;;;;5058074;28;20116;-76
2022/01/22 08:46:36;;;;;;;68.30;38.47;;;;;;;;;;5056712;28;20037;-77
2022/01/22 08:49:04;;;;;;;81.55;39.45;;;;;;;;;;5058310;28;20037;-75
2022/01/22 08:51:30;;;;;;;70.57;37.58;;;;;;;;;;5057401;28;20120;-75
2022/01/22 08:53:56;;;;;;;63.95;34.70;;;;;;;;;;5058073;28;20077;-77
2022/01/22 08:56:22;;;;;;;59.83;33.30;;;;;;;;;;5059347;28;20063;-77
2022/01/22 08:58:48;;;;;;;58.63;34.65;;;;;;;;;;5059942;28;20788;-78
2022/01/22 09:01:14;;;;;;;59.65;34.35;;;;;;;;;;5060444;28;20044;-77
2022/01/22 09:03:40;;;;;;;57.45;33.35;;;;;;;;;;5058326;28;20128;-76
2022/01/22 09:06:06;;;;;;;59.25;33.28;;;;;;;;;;5057319;28;20349;-75
2022/01/22 09:08:33;;;;;;;59.00;34.50;;;;;;;;;;5059585;28;20043;-77
2022/01/22 09:10:59;;;;;;;63.92;34.33;;;;;;;;;;5059740;28;20043;-77
2022/01/22 09:13:25;;;;;;;60.65;34.85;;;;;;;;;;5060493;28;20049;-77
2022/01/22 09:15:53;;;;;;;66.00;35.38;;;;;;;;;;5060180;28;20040;-78
2022/01/22 09:18:19;;;;;;;65.10;36.42;;;;;;;;;;5043474;28;20072;-78
2022/01/22 09:21:01;;;;;;;70.45;39.65;;;;;;;;;;5060504;28;20036;-77
2022/01/22 09:23:27;;;;;;;72.33;39.43;;;;;;;;;;5060412;28;20049;-76
2022/01/22 09:25:53;;;;;;;69.50;39.72;;;;;;;;;;5045372;28;20037;-79
2022/01/22 09:28:19;;;;;;;73.28;41.05;;;;;;;;;;5059819;28;20044;-78
2022/01/22 09:30:47;;;;;;;88.25;44.95;;;;;;;;;;5061801;28;20037;-79
2022/01/22 09:33:13;;;;;;;77.72;42.63;;;;;;;;;;5043463;28;20372;-76
2022/01/22 09:35:39;;;;;;;73.97;42.25;;;;;;;;;;5040790;28;20045;-78
2022/01/22 09:38:05;;;;;;;70.53;43.30;;;;;;;;;;5044523;28;20036;-77
2022/01/22 09:40:31;;;;;;;72.28;41.50;;;;;;;;;;5062643;28;20063;-79
2022/01/22 09:42:59;;;;;;;70.55;41.83;;;;;;;;;;5066082;28;20105;-78
2022/01/22 09:45:25;;;;;;;76.80;43.28;;;;;;;;;;5058859;28;20060;-76
2022/01/22 09:47:51;;;;;;;84.72;46.42;;;;;;;;;;5060726;28;20124;-77
2022/01/22 09:50:18;;;;;;;69.03;41.22;;;;;;;;;;5042565;28;20037;-77
2022/01/22 09:52:47;;;;;;;72.47;41.80;;;;;;;;;;5043633;28;20037;-79
2022/01/22 09:55:13;;;;;;;75.05;41.15;;;;;;;;;;5042250;28;20381;-78
2022/01/22 09:57:39;;;;;;;68.57;39.47;;;;;;;;;;5056374;28;20362;-76
2022/01/22 10:00:09;;;;;;;61.72;38.80;;;;;;;;;;5040527;28;20044;-76
2022/01/22 10:02:48;;;;;;;64.43;37.58;;;;;;;;;;5056353;28;20044;-76
2022/01/22 10:05:29;;;;;;;68.70;39.75;;;;;;;;;;5056882;28;20475;-76
2022/01/22 10:07:58;;;;;;;60.22;35.50;;;;;;;;;;5057550;28;20064;-76
2022/01/22 10:10:24;;;;;;;59.10;35.63;;;;;;;;;;5040580;28;20040;-77
2022/01/22 10:12:52;;;;;;;58.22;34.90;;;;;;;;;;5057587;28;20041;-77
2022/01/22 10:15:21;;;;;;;64.95;35.88;;;;;;;;;;5039320;28;20052;-76
2022/01/22 10:17:51;;;;;;;61.03;35.25;;;;;;;;;;5055894;28;20441;-76
2022/01/22 10:20:29;;;;;;;57.03;33.60;;;;;;;;;;5056724;28;20036;-76
2022/01/22 10:23:08;;;;;;;56.58;33.60;;;;;;;;;;5056729;28;20037;-76
2022/01/22 10:25:36;;;;;;;57.08;33.95;;;;;;;;;;5039701;28;20044;-76
2022/01/22 10:28:03;;;;;;;59.67;34.35;;;;;;;;;;5058338;28;20099;-76
2022/01/22 10:30:41;;;;;;;63.47;36.75;;;;;;;;;;5039256;28;20071;-76
2022/01/22 10:35:45;;;;;;;68.53;35.53;;;;;;;;;;5060577;28;20040;-78
2022/01/22 10:38:11;;;;;;;55.88;32.78;;;;;;;;;;5060399;28;20380;-78
2022/01/22 10:40:38;;;;;;;54.30;31.90;;;;;;;;;;5060763;28;20380;-78
2022/01/22 10:43:31;;;;;;;53.28;31.58;;;;;;;;;;5064703;28;20068;-78
2022/01/22 10:46:00;;;;;;;;;;;;;;;;;;5069348;28;20040;-78
2022/01/22 10:48:26;;;;;;;47.17;29.08;;;;;;;;;;5072307;28;19968;-78
2022/01/22 10:51:11;;;;;;;52.30;31.38;;;;;;;;;;5071786;28;20040;-78
2022/01/22 10:53:58;;;;;;;48.42;28.83;;;;;;;;;;5063946;28;20044;-78
2022/01/22 10:56:24;;;;;;;49.85;30.58;;;;;;;;;;5044047;28;20052;-77
2022/01/22 10:59:06;;;;;;;52.72;31.30;;;;;;;;;;5067789;28;20078;-77
2022/01/22 11:01:51;;;;;;;48.17;29.08;;;;;;;;;;5059797;28;20103;-77
2022/01/22 11:04:26;;;;;;;51.75;32.15;;;;;;;;;;5059923;28;20045;-77
2022/01/22 11:07:02;;;;;;;54.53;32.67;;;;;;;;;;5059020;28;20390;-77
2022/01/22 11:09:30;;;;;;;52.95;31.38;;;;;;;;;;5061081;28;20404;-78
2022/01/22 11:11:56;;;;;;;55.83;34.40;;;;;;;;;;5056680;28;20110;-78
2022/01/22 11:14:22;;;;;;;61.90;36.10;;;;;;;;;;5043443;28;20041;-78
2022/01/22 11:16:48;;;;;;;58.08;34.95;;;;;;;;;;5042443;28;20097;-78
2022/01/22 11:19:18;;;;;;;62.47;37.38;;;;;;;;;;5059137;28;20040;-78
2022/01/22 11:21:47;;;;;;;59.15;35.05;;;;;;;;;;5039422;28;20045;-77
2022/01/22 11:24:26;;;;;;;58.47;35.47;;;;;;;;;;5040089;28;20376;-78
2022/01/22 11:27:01;;;;;;;58.17;33.22;;;;;;;;;;5065793;28;20036;-77
2022/01/22 11:29:28;;;;;;;58.75;35.25;;;;;;;;;;5077666;28;20093;-77
2022/01/22 11:31:54;;;;;;;58.95;33.97;;;;;;;;;;5067270;28;20044;-78
2022/01/22 11:34:38;;;;;;;59.10;35.90;;;;;;;;;;5041020;28;20033;-77
2022/01/22 11:37:13;;;;;;;56.60;34.92;;;;;;;;;;5059445;28;20425;-76
2022/01/22 11:39:40;;;;;;;57.95;33.03;;;;;;;;;;5062104;28;20051;-77
2022/01/22 11:42:06;;;;;;;55.50;34.58;;;;;;;;;;5055608;28;20053;-77
2022/01/22 11:44:40;;;;;;;54.60;34.50;;;;;;;;;;5055172;28;20070;-78
2022/01/22 11:47:16;;;;;;;57.42;33.88;;;;;;;;;;5058700;28;20041;-78
2022/01/22 11:49:42;;;;;;;54.45;34.08;;;;;;;;;;5041889;28;20041;-78
2022/01/22 11:52:08;;;;;;;52.45;32.30;;;;;;;;;;5059446;28;20067;-80
2022/01/22 11:54:53;;;;;;;55.65;32.55;;;;;;;;;;5061172;28;20083;-80
2022/01/22 11:57:19;;;;;;;51.10;30.90;;;;;;;;;;5064948;28;20098;-79
2022/01/22 11:59:46;;;;;;;53.00;32.58;;;;;;;;;;5063498;28;20079;-78
2022/01/22 12:02:14;;;;;;;58.80;33.58;;;;;;;;;;5065225;28;20043;-79
2022/01/22 12:04:40;;;;;;;62.22;34.13;;;;;;;;;;5062594;28;20048;-78
2022/01/22 12:07:07;;;;;;;60.30;34.20;;;;;;;;;;5062681;28;20029;-82
2022/01/22 12:15:20;;;;;;;54.38;31.38;;;;;;;;;;5072014;28;20037;-78
2022/01/22 12:23:02;;;;;;;44.05;26.52;;;;;;;;;;5066306;28;20040;-78
2022/01/22 12:25:31;;;;;;;42.80;26.30;;;;;;;;;;5073576;28;20060;-77
2022/01/22 12:27:57;;;;;;;38.97;24.48;;;;;;;;;;5073171;28;20033;-78
2022/01/22 12:30:39;;;;;;;45.42;27.05;;;;;;;;;;5073430;28;20037;-78
2022/01/22 12:33:07;;;;;;;34.83;23.38;;;;;;;;;;5068422;28;20051;-77
2022/01/22 12:35:38;;;;;;;42.20;24.95;;;;;;;;;;5042240;28;20044;-78
2022/01/22 12:38:45;;;;;;;40.20;24.23;;;;;;;;;;5058253;28;20087;-77
2022/01/22 12:44:05;;;;;;;41.00;23.27;;;;;;;;;;5058484;28;20045;-77
2022/01/22 12:46:32;;;;;;;41.13;24.58;;;;;;;;;;5059917;28;20037;-78
2022/01/22 12:48:58;;;;;;;39.30;24.00;;;;;;;;;;5059217;28;20065;-78
2022/01/22 12:51:27;;;;;;;35.10;21.90;;;;;;;;;;5042817;28;20048;-77
2022/01/22 12:53:53;;;;;;;35.55;21.17;;;;;;;;;;5042591;28;20049;-78
2022/01/22 12:59:01;;;;;;;33.80;20.85;;;;;;;;;;5069954;28;20067;-77
2022/01/22 13:01:29;;;;;;;36.00;19.73;;;;;;;;;;5072400;28;20052;-77
2022/01/22 13:03:55;;;;;;;29.13;19.40;;;;;;;;;;5072154;28;20048;-78
2022/01/22 13:06:26;;;;;;;32.08;18.88;;;;;;;;;;5042646;28;20465;-77
2022/01/22 13:08:58;;;;;;;30.75;19.52;;;;;;;;;;5057893;28;20045;-76
2022/01/22 13:11:28;;;;;;;31.25;19.90;;;;;;;;;;5058110;28;20047;-76
2022/01/22 13:13:54;;;;;;;33.75;20.63;;;;;;;;;;5057482;28;20051;-76
2022/01/22 13:16:21;;;;;;;34.25;22.05;;;;;;;;;;5041044;28;20116;-76
2022/01/22 13:18:58;;;;;;;32.85;21.27;;;;;;;;;;5040646;28;20102;-77
2022/01/22 13:21:28;;;;;;;34.03;20.15;;;;;;;;;;5061516;28;20390;-77
2022/01/22 13:24:03;;;;;;;34.67;19.48;;;;;;;;;;5042488;28;20075;-78
2022/01/22 13:26:43;;;;;;;34.97;17.70;;;;;;;;;;5057888;28;20102;-78
2022/01/22 13:29:24;;;;;;;27.48;15.70;;;;;;;;;;5058380;28;20121;-77
2022/01/22 13:32:00;;;;;;;27.48;16.40;;;;;;;;;;5058681;28;20076;-78
2022/01/22 13:34:43;;;;;;;24.48;15.05;;;;;;;;;;5040830;28;20106;-77
2022/01/22 13:45:27;;;;;;;23.52;13.80;;;;;;;;;;5060085;28;20052;-76
2022/01/22 13:47:53;;;;;;;26.17;15.07;;;;;;;;;;5057520;28;20041;-76
2022/01/22 13:50:21;;;;;;;24.40;15.52;;;;;;;;;;5064099;28;20045;-76
2022/01/22 13:52:47;;;;;;;24.30;14.75;;;;;;;;;;5057298;28;20041;-76
2022/01/22 13:55:14;;;;;;;22.88;13.65;;;;;;;;;;5057277;28;20181;-76
2022/01/22 13:57:42;;;;;;;23.90;14.13;;;;;;;;;;5058098;28;20041;-76
2022/01/22 14:00:09;;;;;;;26.17;14.52;;;;;;;;;;5056324;28;20322;-77
2022/01/22 14:05:28;;;;;;;28.88;14.25;;;;;;;;;;5058021;28;20037;-76
2022/01/22 14:08:01;;;;;;;26.52;14.23;;;;;;;;;;5040022;28;20706;-77
2022/01/22 14:10:27;;;;;;;25.33;14.52;;;;;;;;;;5056145;28;20094;-77
2022/01/22 14:12:56;;;;;;;29.38;15.77;;;;;;;;;;5055848;28;20051;-76
2022/01/22 14:15:37;;;;;;;29.27;17.67;;;;;;;;;;5039442;28;20040;-76
2022/01/22 14:18:32;;;;;;;28.25;18.85;;;;;;;;;;5057071;28;20326;-77
2022/01/22 14:20:56;;;;;;;32.72;22.02;;;;;;;;;;5056209;28;20041;-77
2022/01/22 14:23:25;;;;;;;32.38;21.45;;;;;;;;;;5058725;28;20128;-76
2022/01/22 14:25:54;;;;;;;34.53;22.15;;;;;;;;;;5060606;28;20060;-77
2022/01/22 14:28:20;;;;;;;36.92;22.95;;;;;;;;;;5059007;28;20120;-76
2022/01/22 14:30:47;;;;;;;36.20;21.45;;;;;;;;;;5059405;28;20061;-77
2022/01/22 14:33:16;;;;;;;37.20;23.92;;;;;;;;;;5061767;28;20047;-76
2022/01/22 14:35:42;;;;;;;37.33;23.25;;;;;;;;;;5052928;28;20041;-77
2022/01/22 14:38:34;;;;;;;31.38;20.95;;;;;;;;;;5056374;28;20524;-77
2022/01/22 14:44:03;;;;;;;32.42;21.83;;;;;;;;;;5058246;28;20040;-77
2022/01/22 14:46:52;;;;;;;40.95;23.58;;;;;;;;;;5057467;28;20342;-77
2022/01/22 14:49:18;;;;;;;37.47;21.75;;;;;;;;;;5062320;28;20117;-77
2022/01/22 14:51:44;;;;;;;38.33;22.98;;;;;;;;;;5039719;28;20484;-77
2022/01/22 14:54:10;;;;;;;38.53;23.02;;;;;;;;;;5041493;28;20040;-77
2022/01/22 14:56:37;;;;;;;41.10;23.30;;;;;;;;;;5056490;28;20127;-77
2022/01/22 14:59:02;;;;;;;45.05;24.25;;;;;;;;;;5040498;28;20162;-78
2022/01/22 15:01:29;;;;;;;37.65;24.10;;;;;;;;;;5057056;28;20043;-78
2022/01/22 15:03:55;;;;;;;38.08;23.63;;;;;;;;;;5055557;28;20070;-76
2022/01/22 15:06:21;;;;;;;36.05;22.63;;;;;;;;;;5054722;28;20402;-77
2022/01/22 15:08:47;;;;;;;36.92;21.23;;;;;;;;;;5038697;28;20037;-77
2022/01/22 15:11:13;;;;;;;28.65;17.95;;;;;;;;;;5055914;28;20094;-77
2022/01/22 15:13:39;;;;;;;28.52;16.75;;;;;;;;;;5056050;28;20415;-76
2022/01/22 15:16:10;;;;;;;29.35;17.88;;;;;;;;;;5055120;28;20045;-76
2022/01/22 15:18:53;;;;;;;29.30;18.90;;;;;;;;;;5040027;28;20037;-76
2022/01/22 15:21:20;;;;;;;31.23;19.25;;;;;;;;;;5064892;28;20106;-75
2022/01/22 15:23:46;;;;;;;35.55;21.58;;;;;;;;;;5070248;28;20037;-75
2022/01/22 15:26:13;;;;;;;33.92;21.67;;;;;;;;;;5057195;28;20115;-77
2022/01/22 15:28:44;;;;;;;33.92;20.50;;;;;;;;;;5038760;28;20439;-76
2022/01/22 15:31:26;;;;;;;31.48;21.20;;;;;;;;;;5038860;28;20047;-78
2022/01/22 15:34:04;;;;;;;34.38;20.05;;;;;;;;;;5042004;28;20114;-78
2022/01/22 15:36:30;;;;;;;35.30;20.17;;;;;;;;;;5057643;28;20056;-78
2022/01/22 15:38:56;;;;;;;38.50;19.63;;;;;;;;;;5056416;28;20044;-78
2022/01/22 15:41:22;;;;;;;38.22;22.75;;;;;;;;;;5057399;28;20037;-78
2022/01/22 15:43:49;;;;;;;39.45;20.67;;;;;;;;;;5038298;28;20400;-76
2022/01/22 15:46:15;;;;;;;31.45;20.08;;;;;;;;;;5056426;28;20039;-77
2022/01/22 15:48:42;;;;;;;35.97;20.05;;;;;;;;;;5055601;28;20114;-76
2022/01/22 15:51:08;;;;;;;41.88;20.45;;;;;;;;;;5055567;28;20118;-77
2022/01/22 15:53:34;;;;;;;36.00;20.63;;;;;;;;;;5055139;28;20045;-76
2022/01/22 15:56:01;;;;;;;35.05;21.15;;;;;;;;;;5038947;28;20437;-78
2022/01/22 15:58:27;;;;;;;36.45;19.77;;;;;;;;;;5056375;28;20045;-76
2022/01/22 16:00:53;;;;;;;34.33;18.48;;;;;;;;;;5057622;28;20107;-76
2022/01/22 16:03:19;;;;;;;39.50;20.90;;;;;;;;;;5056043;28;20060;-77
2022/01/22 16:05:45;;;;;;;34.85;19.48;;;;;;;;;;5039756;28;20041;-76
2022/01/22 16:08:12;;;;;;;38.22;20.65;;;;;;;;;;5045760;28;20093;-77
2022/01/22 16:10:38;;;;;;;33.40;20.50;;;;;;;;;;5069947;28;20078;-76
2022/01/22 16:13:04;;;;;;;35.50;20.30;;;;;;;;;;5057304;28;20036;-78
2022/01/22 16:15:31;;;;;;;33.25;21.35;;;;;;;;;;5055421;28;20124;-77
2022/01/22 16:17:57;;;;;;;38.13;22.58;;;;;;;;;;5038893;28;20452;-78
2022/01/22 16:20:24;;;;;;;37.97;24.33;;;;;;;;;;5038358;28;20056;-77
2022/01/22 16:22:50;;;;;;;41.55;24.48;;;;;;;;;;5055165;28;20036;-76
2022/01/22 16:25:17;;;;;;;45.45;25.90;;;;;;;;;;5055737;28;20037;-78
2022/01/22 16:27:43;;;;;;;48.53;26.33;;;;;;;;;;5057266;28;20445;-78
2022/01/22 16:30:10;;;;;;;40.95;25.00;;;;;;;;;;5054959;28;20052;-78
2022/01/22 16:32:36;;;;;;;47.63;27.80;;;;;;;;;;5038733;28;20075;-78